Pointblank, TX

09:38 AM CDT del 24 Luglio 2016 (GMT -0500)
Oakhurst | | Change Station

Alt. 262 ft 30.80 °N, 95.30 °W | Updated 13 seconds ago

Partly Cloudy
Parzialmente nuvoloso
86.2 °F
Sembra 97 °F
N
2.7
Vento Variabile Vento da Sud
Gusts 4.9 mph

Oggi
Massima -- | Minima -- °F
--% Possibilità di precip.
Ieri
Massima -- | Minima -- °F
Precip. -- in
Pressione 29.98 in
Visibilità 10.0 miglia
Nuvole Alcuni 1500 ft
Indice di calore 97 °F
Punto di rugiada 77 °F
Umidità 73%
Piovosità 0.00 in
Spessore del manto nevoso Non disponibile.
6:34 AM 8:20 PM
Gobba a levante, 76% visible
METAR KUTS 241353Z AUTO 22005KT 10SM FEW015 29/24 A3000 RMK AO2 SLP152 T02890239
Pressione 29.98 in
Visibilità 10.0 miglia
Nuvole Alcuni 1500 ft
Indice di calore 97 °F
Punto di rugiada 77 °F
Umidità 73%
Piovosità 0.00 in
Spessore del manto nevoso Non disponibile.
6:34 AM 8:20 PM
Gobba a levante, 76% visible
METAR KUTS 241353Z AUTO 22005KT 10SM FEW015 29/24 A3000 RMK AO2 SLP152 T02890239

10-Day Weather Forecast

Almanac

Astronomia

Jul. 24, 2016 Alba Tramonto
Ora attuale
Crepuscolo civile
Crepuscolo nautico
Crepuscolo astronomico
Luna
Estensione della luce visibile
Lunghezza del giorno
Tomorrow will be .
, % of the Moon is Illuminated

Gli estremi di oggi

State Highs State Lows

Community

WunderPhotos

Upload Photos

1,927,066 foto caricate!

WunderBlog® & News

Nearby

Qualità dell'aria

  Qualità dell'aria Indice AQ Inquinante
Not available.

Profondità neve

Stazione Profondità Altitudine

Attività sismica

Città  Distanza Mag. Data & Ora
Minimo Magnitudo Mostrato è 2.5.

Temperature delle acque costiere

Località Temperatura

Stations

Stazioni meteo nelle vicinanze

Ubicazione della stazione Temp. Raffreddamento del vento Punto di rugiada Umidità Vento Precip. Alt. Aggiornato Tipo
                   

Watches & Warnings

There are currently no watches in effect.